sensor_id;sensor_type;location;lat;lon;timestamp;temperature;humidity
22383;DHT22;11359;45.802;13.530;2022-09-29T00:02:12;19.00;67.80
22383;DHT22;11359;45.802;13.530;2022-09-29T00:04:38;19.00;67.80
22383;DHT22;11359;45.802;13.530;2022-09-29T00:07:03;19.00;67.80
22383;DHT22;11359;45.802;13.530;2022-09-29T00:09:29;19.00;67.80
22383;DHT22;11359;45.802;13.530;2022-09-29T00:11:55;19.00;67.80
22383;DHT22;11359;45.802;13.530;2022-09-29T00:14:22;18.90;67.70
22383;DHT22;11359;45.802;13.530;2022-09-29T00:16:48;18.90;67.80
22383;DHT22;11359;45.802;13.530;2022-09-29T00:19:14;18.90;67.80
22383;DHT22;11359;45.802;13.530;2022-09-29T00:21:40;18.90;67.80
22383;DHT22;11359;45.802;13.530;2022-09-29T00:24:05;18.90;67.70
22383;DHT22;11359;45.802;13.530;2022-09-29T00:26:31;18.90;67.80
22383;DHT22;11359;45.802;13.530;2022-09-29T00:28:58;18.90;67.80
22383;DHT22;11359;45.802;13.530;2022-09-29T00:31:28;18.90;67.80
22383;DHT22;11359;45.802;13.530;2022-09-29T00:33:55;18.90;67.80
22383;DHT22;11359;45.802;13.530;2022-09-29T00:36:21;18.90;67.80
22383;DHT22;11359;45.802;13.530;2022-09-29T00:38:48;18.80;67.70
22383;DHT22;11359;45.802;13.530;2022-09-29T00:41:20;18.80;67.80
22383;DHT22;11359;45.802;13.530;2022-09-29T00:55:11;18.80;67.90
22383;DHT22;11359;45.802;13.530;2022-09-29T00:58:02;18.80;68.00
22383;DHT22;11359;45.802;13.530;2022-09-29T01:00:26;18.80;68.00
22383;DHT22;11359;45.802;13.530;2022-09-29T01:02:59;18.80;68.20
22383;DHT22;11359;45.802;13.530;2022-09-29T01:05:33;18.70;68.10
22383;DHT22;11359;45.802;13.530;2022-09-29T01:08:10;18.70;68.20
22383;DHT22;11359;45.802;13.530;2022-09-29T01:10:39;18.70;68.30
22383;DHT22;11359;45.802;13.530;2022-09-29T01:13:05;18.80;68.40
22383;DHT22;11359;45.802;13.530;2022-09-29T01:15:31;18.70;68.40
22383;DHT22;11359;45.802;13.530;2022-09-29T01:17:57;18.70;68.40
22383;DHT22;11359;45.802;13.530;2022-09-29T01:20:24;18.80;68.60
22383;DHT22;11359;45.802;13.530;2022-09-29T01:31:29;18.80;68.60
22383;DHT22;11359;45.802;13.530;2022-09-29T01:36:47;18.80;68.70
22383;DHT22;11359;45.802;13.530;2022-09-29T01:42:15;18.80;68.80
22383;DHT22;11359;45.802;13.530;2022-09-29T01:44:45;18.80;68.80
22383;DHT22;11359;45.802;13.530;2022-09-29T01:47:49;18.80;68.90
22383;DHT22;11359;45.802;13.530;2022-09-29T01:50:25;18.80;68.90
22383;DHT22;11359;45.802;13.530;2022-09-29T01:52:59;18.80;68.90
22383;DHT22;11359;45.802;13.530;2022-09-29T01:55:29;18.80;69.00
22383;DHT22;11359;45.802;13.530;2022-09-29T01:58:06;18.80;69.00
22383;DHT22;11359;45.802;13.530;2022-09-29T02:00:53;18.80;69.00
22383;DHT22;11359;45.802;13.530;2022-09-29T02:03:56;18.80;69.00
22383;DHT22;11359;45.802;13.530;2022-09-29T02:06:20;18.80;69.00
22383;DHT22;11359;45.802;13.530;2022-09-29T02:08:57;18.80;69.00
22383;DHT22;11359;45.802;13.530;2022-09-29T02:11:23;18.80;69.10
22383;DHT22;11359;45.802;13.530;2022-09-29T02:14:05;18.80;69.10
22383;DHT22;11359;45.802;13.530;2022-09-29T02:16:35;18.80;69.10
22383;DHT22;11359;45.802;13.530;2022-09-29T02:19:19;18.80;69.10
22383;DHT22;11359;45.802;13.530;2022-09-29T02:21:47;18.80;69.10
22383;DHT22;11359;45.802;13.530;2022-09-29T02:24:13;18.80;69.10
22383;DHT22;11359;45.802;13.530;2022-09-29T02:26:39;18.80;69.10
22383;DHT22;11359;45.802;13.530;2022-09-29T02:29:07;18.80;69.20
22383;DHT22;11359;45.802;13.530;2022-09-29T02:31:35;18.80;69.20
22383;DHT22;11359;45.802;13.530;2022-09-29T02:34:01;18.80;69.20
22383;DHT22;11359;45.802;13.530;2022-09-29T02:39:19;18.80;69.20
22383;DHT22;11359;45.802;13.530;2022-09-29T02:45:09;18.80;69.30
22383;DHT22;11359;45.802;13.530;2022-09-29T02:56:50;18.70;69.40
22383;DHT22;11359;45.802;13.530;2022-09-29T02:59:41;18.70;69.50
22383;DHT22;11359;45.802;13.530;2022-09-29T03:02:10;18.80;69.60
22383;DHT22;11359;45.802;13.530;2022-09-29T03:04:36;18.70;69.60
22383;DHT22;11359;45.802;13.530;2022-09-29T03:07:02;18.70;69.60
22383;DHT22;11359;45.802;13.530;2022-09-29T03:09:27;18.70;69.60
22383;DHT22;11359;45.802;13.530;2022-09-29T03:11:53;18.70;69.60
22383;DHT22;11359;45.802;13.530;2022-09-29T03:14:19;18.70;69.70
22383;DHT22;11359;45.802;13.530;2022-09-29T03:16:44;18.70;69.80
22383;DHT22;11359;45.802;13.530;2022-09-29T03:19:10;18.80;69.80
22383;DHT22;11359;45.802;13.530;2022-09-29T03:21:36;18.80;69.80
22383;DHT22;11359;45.802;13.530;2022-09-29T03:24:02;18.80;69.80
22383;DHT22;11359;45.802;13.530;2022-09-29T03:26:27;18.80;69.80
22383;DHT22;11359;45.802;13.530;2022-09-29T03:28:54;18.80;69.80
22383;DHT22;11359;45.802;13.530;2022-09-29T03:31:20;18.80;69.80
22383;DHT22;11359;45.802;13.530;2022-09-29T03:33:46;18.80;70.60
22383;DHT22;11359;45.802;13.530;2022-09-29T03:36:12;18.80;69.80
22383;DHT22;11359;45.802;13.530;2022-09-29T03:38:38;18.80;69.90
22383;DHT22;11359;45.802;13.530;2022-09-29T03:41:04;18.80;69.90
22383;DHT22;11359;45.802;13.530;2022-09-29T03:43:30;18.80;69.90
22383;DHT22;11359;45.802;13.530;2022-09-29T03:45:56;18.80;69.90
22383;DHT22;11359;45.802;13.530;2022-09-29T03:48:23;18.80;69.90
22383;DHT22;11359;45.802;13.530;2022-09-29T03:50:50;18.80;70.00
22383;DHT22;11359;45.802;13.530;2022-09-29T03:53:17;18.80;70.00
22383;DHT22;11359;45.802;13.530;2022-09-29T03:55:49;18.80;70.00
22383;DHT22;11359;45.802;13.530;2022-09-29T03:58:15;18.80;70.00
22383;DHT22;11359;45.802;13.530;2022-09-29T04:00:47;18.80;70.00
22383;DHT22;11359;45.802;13.530;2022-09-29T04:03:13;18.80;70.00
22383;DHT22;11359;45.802;13.530;2022-09-29T04:05:39;18.80;70.00
22383;DHT22;11359;45.802;13.530;2022-09-29T04:08:05;18.80;70.00
22383;DHT22;11359;45.802;13.530;2022-09-29T04:10:37;18.80;70.00
22383;DHT22;11359;45.802;13.530;2022-09-29T04:13:04;18.80;70.00
22383;DHT22;11359;45.802;13.530;2022-09-29T04:15:30;18.70;70.00
22383;DHT22;11359;45.802;13.530;2022-09-29T04:17:56;18.70;70.00
22383;DHT22;11359;45.802;13.530;2022-09-29T04:20:23;18.70;70.00
22383;DHT22;11359;45.802;13.530;2022-09-29T04:22:51;18.70;70.00
22383;DHT22;11359;45.802;13.530;2022-09-29T04:25:17;18.70;70.00
22383;DHT22;11359;45.802;13.530;2022-09-29T04:27:43;18.70;70.00
22383;DHT22;11359;45.802;13.530;2022-09-29T04:30:10;18.70;70.00
22383;DHT22;11359;45.802;13.530;2022-09-29T04:32:35;18.70;70.00
22383;DHT22;11359;45.802;13.530;2022-09-29T04:35:01;18.70;70.10
22383;DHT22;11359;45.802;13.530;2022-09-29T04:37:27;18.70;70.10
22383;DHT22;11359;45.802;13.530;2022-09-29T04:39:53;18.70;70.20
22383;DHT22;11359;45.802;13.530;2022-09-29T04:42:19;18.70;70.30
22383;DHT22;11359;45.802;13.530;2022-09-29T04:44:46;18.70;70.30
22383;DHT22;11359;45.802;13.530;2022-09-29T04:47:12;18.70;70.30
22383;DHT22;11359;45.802;13.530;2022-09-29T04:49:37;18.70;70.40
22383;DHT22;11359;45.802;13.530;2022-09-29T04:52:03;18.70;70.40
22383;DHT22;11359;45.802;13.530;2022-09-29T04:54:31;18.70;70.50
22383;DHT22;11359;45.802;13.530;2022-09-29T04:56:57;18.70;70.50
22383;DHT22;11359;45.802;13.530;2022-09-29T04:59:24;18.70;70.50
22383;DHT22;11359;45.802;13.530;2022-09-29T05:01:49;18.70;70.60
22383;DHT22;11359;45.802;13.530;2022-09-29T05:04:15;18.70;70.60
22383;DHT22;11359;45.802;13.530;2022-09-29T05:06:41;18.70;70.70
22383;DHT22;11359;45.802;13.530;2022-09-29T05:09:06;18.70;70.70
22383;DHT22;11359;45.802;13.530;2022-09-29T05:11:33;18.70;70.80
22383;DHT22;11359;45.802;13.530;2022-09-29T05:13:59;18.70;70.70
22383;DHT22;11359;45.802;13.530;2022-09-29T05:16:25;18.70;70.70
22383;DHT22;11359;45.802;13.530;2022-09-29T05:18:51;18.70;70.70
22383;DHT22;11359;45.802;13.530;2022-09-29T05:21:17;18.70;71.50
22383;DHT22;11359;45.802;13.530;2022-09-29T05:23:42;18.70;70.80
22383;DHT22;11359;45.802;13.530;2022-09-29T05:26:10;18.70;70.80
22383;DHT22;11359;45.802;13.530;2022-09-29T05:28:37;18.70;70.80
22383;DHT22;11359;45.802;13.530;2022-09-29T05:31:07;18.70;70.90
22383;DHT22;11359;45.802;13.530;2022-09-29T05:33:34;18.70;70.90
22383;DHT22;11359;45.802;13.530;2022-09-29T05:36:02;18.70;70.90
22383;DHT22;11359;45.802;13.530;2022-09-29T05:38:28;18.80;71.00
22383;DHT22;11359;45.802;13.530;2022-09-29T05:40:55;18.80;71.10
22383;DHT22;11359;45.802;13.530;2022-09-29T05:43:21;18.70;71.00
22383;DHT22;11359;45.802;13.530;2022-09-29T05:45:47;18.80;71.20
22383;DHT22;11359;45.802;13.530;2022-09-29T05:48:12;18.80;71.10
22383;DHT22;11359;45.802;13.530;2022-09-29T05:50:38;18.80;71.20
22383;DHT22;11359;45.802;13.530;2022-09-29T05:53:08;18.80;71.20
22383;DHT22;11359;45.802;13.530;2022-09-29T05:55:38;18.80;71.30
22383;DHT22;11359;45.802;13.530;2022-09-29T05:58:05;18.80;71.30
22383;DHT22;11359;45.802;13.530;2022-09-29T06:00:31;18.90;71.50
22383;DHT22;11359;45.802;13.530;2022-09-29T06:03:01;18.80;71.50
22383;DHT22;11359;45.802;13.530;2022-09-29T06:05:27;18.90;71.50
22383;DHT22;11359;45.802;13.530;2022-09-29T06:07:53;18.90;71.50
22383;DHT22;11359;45.802;13.530;2022-09-29T06:10:20;18.90;71.60
22383;DHT22;11359;45.802;13.530;2022-09-29T06:12:46;18.90;71.60
22383;DHT22;11359;45.802;13.530;2022-09-29T06:15:12;18.90;71.70
22383;DHT22;11359;45.802;13.530;2022-09-29T06:17:38;18.90;71.70
22383;DHT22;11359;45.802;13.530;2022-09-29T06:20:05;19.00;71.80
22383;DHT22;11359;45.802;13.530;2022-09-29T06:22:32;19.00;71.90
22383;DHT22;11359;45.802;13.530;2022-09-29T06:24:58;19.00;71.90
22383;DHT22;11359;45.802;13.530;2022-09-29T06:27:24;19.00;71.90
22383;DHT22;11359;45.802;13.530;2022-09-29T06:29:49;19.00;72.00
22383;DHT22;11359;45.802;13.530;2022-09-29T06:32:16;19.00;72.10
22383;DHT22;11359;45.802;13.530;2022-09-29T06:34:42;19.10;72.10
22383;DHT22;11359;45.802;13.530;2022-09-29T06:37:26;19.20;72.20
22383;DHT22;11359;45.802;13.530;2022-09-29T06:40:06;19.20;72.20
22383;DHT22;11359;45.802;13.530;2022-09-29T06:42:34;19.20;72.30
22383;DHT22;11359;45.802;13.530;2022-09-29T06:44:59;19.20;72.30
22383;DHT22;11359;45.802;13.530;2022-09-29T06:47:26;19.20;72.30
22383;DHT22;11359;45.802;13.530;2022-09-29T06:49:52;19.20;72.30
22383;DHT22;11359;45.802;13.530;2022-09-29T06:52:18;19.20;72.30
22383;DHT22;11359;45.802;13.530;2022-09-29T06:54:44;19.30;72.50
22383;DHT22;11359;45.802;13.530;2022-09-29T06:57:09;19.30;72.50
22383;DHT22;11359;45.802;13.530;2022-09-29T06:59:35;19.30;72.50
22383;DHT22;11359;45.802;13.530;2022-09-29T07:02:01;19.40;72.60
22383;DHT22;11359;45.802;13.530;2022-09-29T07:04:26;19.40;72.80
22383;DHT22;11359;45.802;13.530;2022-09-29T07:06:52;19.40;72.70
22383;DHT22;11359;45.802;13.530;2022-09-29T07:09:19;19.40;72.80
22383;DHT22;11359;45.802;13.530;2022-09-29T07:11:48;19.50;72.90
22383;DHT22;11359;45.802;13.530;2022-09-29T07:14:19;19.50;72.90
22383;DHT22;11359;45.802;13.530;2022-09-29T07:16:47;19.50;72.90
22383;DHT22;11359;45.802;13.530;2022-09-29T07:19:14;19.50;73.00
22383;DHT22;11359;45.802;13.530;2022-09-29T07:21:40;19.50;73.00
22383;DHT22;11359;45.802;13.530;2022-09-29T07:24:07;19.60;73.10
22383;DHT22;11359;45.802;13.530;2022-09-29T07:26:34;19.60;73.10
22383;DHT22;11359;45.802;13.530;2022-09-29T07:28:59;19.70;73.30
22383;DHT22;11359;45.802;13.530;2022-09-29T07:31:25;19.70;73.40
22383;DHT22;11359;45.802;13.530;2022-09-29T07:33:51;19.70;73.40
22383;DHT22;11359;45.802;13.530;2022-09-29T07:36:18;19.80;73.50
22383;DHT22;11359;45.802;13.530;2022-09-29T07:38:46;19.80;73.60
22383;DHT22;11359;45.802;13.530;2022-09-29T07:41:12;19.80;73.60
22383;DHT22;11359;45.802;13.530;2022-09-29T07:43:38;19.90;73.70
22383;DHT22;11359;45.802;13.530;2022-09-29T07:46:04;19.90;73.70
22383;DHT22;11359;45.802;13.530;2022-09-29T07:48:31;19.90;73.70
22383;DHT22;11359;45.802;13.530;2022-09-29T07:51:09;20.00;73.80
22383;DHT22;11359;45.802;13.530;2022-09-29T07:53:36;20.00;73.80
22383;DHT22;11359;45.802;13.530;2022-09-29T07:56:06;20.00;73.80
22383;DHT22;11359;45.802;13.530;2022-09-29T07:58:33;20.10;73.80
22383;DHT22;11359;45.802;13.530;2022-09-29T08:00:59;20.10;73.70
22383;DHT22;11359;45.802;13.530;2022-09-29T08:03:25;20.10;73.70
22383;DHT22;11359;45.802;13.530;2022-09-29T08:05:53;20.10;73.60
22383;DHT22;11359;45.802;13.530;2022-09-29T08:08:18;20.10;73.50
22383;DHT22;11359;45.802;13.530;2022-09-29T08:10:44;20.10;73.50
22383;DHT22;11359;45.802;13.530;2022-09-29T08:13:10;20.20;73.50
22383;DHT22;11359;45.802;13.530;2022-09-29T08:15:36;20.10;73.40
22383;DHT22;11359;45.802;13.530;2022-09-29T08:18:05;20.20;73.50
22383;DHT22;11359;45.802;13.530;2022-09-29T08:20:31;20.20;73.50
22383;DHT22;11359;45.802;13.530;2022-09-29T08:22:57;20.20;73.50
22383;DHT22;11359;45.802;13.530;2022-09-29T08:25:23;20.20;73.60
22383;DHT22;11359;45.802;13.530;2022-09-29T08:27:51;20.20;73.60
22383;DHT22;11359;45.802;13.530;2022-09-29T08:30:17;20.30;73.70
22383;DHT22;11359;45.802;13.530;2022-09-29T08:32:42;20.30;73.80
22383;DHT22;11359;45.802;13.530;2022-09-29T08:35:09;20.30;73.80
22383;DHT22;11359;45.802;13.530;2022-09-29T08:37:35;20.30;73.80
22383;DHT22;11359;45.802;13.530;2022-09-29T08:40:01;20.30;73.80
22383;DHT22;11359;45.802;13.530;2022-09-29T08:45:36;20.40;74.00
22383;DHT22;11359;45.802;13.530;2022-09-29T08:48:13;20.50;74.10
22383;DHT22;11359;45.802;13.530;2022-09-29T08:50:48;20.50;74.20
22383;DHT22;11359;45.802;13.530;2022-09-29T08:53:19;20.60;74.40
22383;DHT22;11359;45.802;13.530;2022-09-29T08:55:59;20.60;74.50
22383;DHT22;11359;45.802;13.530;2022-09-29T08:58:25;20.70;74.50
22383;DHT22;11359;45.802;13.530;2022-09-29T09:03:45;20.80;74.50
22383;DHT22;11359;45.802;13.530;2022-09-29T09:06:40;20.80;74.30
22383;DHT22;11359;45.802;13.530;2022-09-29T09:09:45;20.90;74.40
22383;DHT22;11359;45.802;13.530;2022-09-29T09:28:13;21.20;74.40
22383;DHT22;11359;45.802;13.530;2022-09-29T09:33:25;21.20;74.30
22383;DHT22;11359;45.802;13.530;2022-09-29T09:35:57;21.30;74.40
22383;DHT22;11359;45.802;13.530;2022-09-29T09:38:27;21.30;74.40
22383;DHT22;11359;45.802;13.530;2022-09-29T09:40:59;21.40;74.40
22383;DHT22;11359;45.802;13.530;2022-09-29T09:43:30;21.40;74.40
22383;DHT22;11359;45.802;13.530;2022-09-29T09:49:00;21.50;74.30
22383;DHT22;11359;45.802;13.530;2022-09-29T09:54:15;21.50;74.20
22383;DHT22;11359;45.802;13.530;2022-09-29T10:02:19;21.70;74.10
22383;DHT22;11359;45.802;13.530;2022-09-29T10:04:53;21.70;74.00
22383;DHT22;11359;45.802;13.530;2022-09-29T10:07:20;21.70;73.90
22383;DHT22;11359;45.802;13.530;2022-09-29T10:09:47;21.70;73.90
22383;DHT22;11359;45.802;13.530;2022-09-29T10:12:21;21.70;74.00
22383;DHT22;11359;45.802;13.530;2022-09-29T10:15:17;21.70;74.10
22383;DHT22;11359;45.802;13.530;2022-09-29T10:17:47;21.80;74.10
22383;DHT22;11359;45.802;13.530;2022-09-29T10:20:37;21.90;74.10
22383;DHT22;11359;45.802;13.530;2022-09-29T10:28:24;22.00;73.80
22383;DHT22;11359;45.802;13.530;2022-09-29T10:30:51;22.00;73.70
22383;DHT22;11359;45.802;13.530;2022-09-29T10:33:21;22.00;73.60
22383;DHT22;11359;45.802;13.530;2022-09-29T10:35:48;22.10;73.60
22383;DHT22;11359;45.802;13.530;2022-09-29T10:40:22;22.10;72.70
22383;DHT22;11359;45.802;13.530;2022-09-29T10:42:49;22.20;73.40
22383;DHT22;11359;45.802;13.530;2022-09-29T10:47:46;22.20;73.20
22383;DHT22;11359;45.802;13.530;2022-09-29T10:50:19;22.20;73.10
22383;DHT22;11359;45.802;13.530;2022-09-29T10:53:01;22.20;73.10
22383;DHT22;11359;45.802;13.530;2022-09-29T10:55:31;22.30;73.10
22383;DHT22;11359;45.802;13.530;2022-09-29T10:57:59;22.30;73.10
22383;DHT22;11359;45.802;13.530;2022-09-29T11:00:37;22.30;73.00
22383;DHT22;11359;45.802;13.530;2022-09-29T11:03:20;22.40;72.80
22383;DHT22;11359;45.802;13.530;2022-09-29T11:05:53;22.30;72.30
22383;DHT22;11359;45.802;13.530;2022-09-29T11:08:22;22.30;71.80
22383;DHT22;11359;45.802;13.530;2022-09-29T11:11:18;22.30;71.30
22383;DHT22;11359;45.802;13.530;2022-09-29T11:13:45;22.40;70.90
22383;DHT22;11359;45.802;13.530;2022-09-29T11:16:15;22.30;70.40
22383;DHT22;11359;45.802;13.530;2022-09-29T11:18:51;22.30;70.10
22383;DHT22;11359;45.802;13.530;2022-09-29T11:21:40;22.30;69.80
22383;DHT22;11359;45.802;13.530;2022-09-29T11:26:49;22.30;69.60
22383;DHT22;11359;45.802;13.530;2022-09-29T11:40:22;22.40;69.40
22383;DHT22;11359;45.802;13.530;2022-09-29T11:43:20;22.40;69.40
22383;DHT22;11359;45.802;13.530;2022-09-29T11:59:56;22.60;68.90
22383;DHT22;11359;45.802;13.530;2022-09-29T12:05:05;22.70;68.80
22383;DHT22;11359;45.802;13.530;2022-09-29T12:12:52;22.70;68.50
22383;DHT22;11359;45.802;13.530;2022-09-29T12:18:07;22.70;68.20
22383;DHT22;11359;45.802;13.530;2022-09-29T12:20:37;22.70;68.10
22383;DHT22;11359;45.802;13.530;2022-09-29T12:23:10;22.80;68.00
22383;DHT22;11359;45.802;13.530;2022-09-29T12:25:44;22.80;67.90
22383;DHT22;11359;45.802;13.530;2022-09-29T12:28:17;22.80;67.80
22383;DHT22;11359;45.802;13.530;2022-09-29T12:30:51;22.80;67.70
22383;DHT22;11359;45.802;13.530;2022-09-29T12:33:25;22.80;67.60
22383;DHT22;11359;45.802;13.530;2022-09-29T12:41:52;22.80;67.60
22383;DHT22;11359;45.802;13.530;2022-09-29T12:44:44;22.90;67.40
22383;DHT22;11359;45.802;13.530;2022-09-29T12:50:10;22.90;67.10
22383;DHT22;11359;45.802;13.530;2022-09-29T12:52:51;22.90;66.80
22383;DHT22;11359;45.802;13.530;2022-09-29T12:55:45;22.90;66.60
22383;DHT22;11359;45.802;13.530;2022-09-29T13:01:33;22.80;66.20
22383;DHT22;11359;45.802;13.530;2022-09-29T13:29:14;22.80;66.10
22383;DHT22;11359;45.802;13.530;2022-09-29T13:31:43;22.80;65.10
22383;DHT22;11359;45.802;13.530;2022-09-29T13:34:28;22.80;65.00
22383;DHT22;11359;45.802;13.530;2022-09-29T13:37:10;22.80;65.00
22383;DHT22;11359;45.802;13.530;2022-09-29T13:39:40;22.70;65.00
22383;DHT22;11359;45.802;13.530;2022-09-29T13:45:15;22.70;65.10
22383;DHT22;11359;45.802;13.530;2022-09-29T13:47:49;22.70;65.80
22383;DHT22;11359;45.802;13.530;2022-09-29T13:50:42;22.70;65.00
22383;DHT22;11359;45.802;13.530;2022-09-29T13:58:58;22.80;65.30
22383;DHT22;11359;45.802;13.530;2022-09-29T14:01:37;22.80;65.40
22383;DHT22;11359;45.802;13.530;2022-09-29T14:07:12;22.80;64.80
22383;DHT22;11359;45.802;13.530;2022-09-29T14:09:44;22.90;64.80
22383;DHT22;11359;45.802;13.530;2022-09-29T14:12:21;22.90;64.80
22383;DHT22;11359;45.802;13.530;2022-09-29T14:14:58;22.90;64.70
22383;DHT22;11359;45.802;13.530;2022-09-29T14:17:32;22.90;64.60
22383;DHT22;11359;45.802;13.530;2022-09-29T14:28:00;22.80;64.40
22383;DHT22;11359;45.802;13.530;2022-09-29T14:35:38;22.80;64.50
22383;DHT22;11359;45.802;13.530;2022-09-29T14:38:20;22.80;64.40
22383;DHT22;11359;45.802;13.530;2022-09-29T14:46:17;22.80;64.20
22383;DHT22;11359;45.802;13.530;2022-09-29T14:49:46;22.80;64.20
22383;DHT22;11359;45.802;13.530;2022-09-29T14:53:26;22.70;64.10
22383;DHT22;11359;45.802;13.530;2022-09-29T15:01:11;22.60;64.20
22383;DHT22;11359;45.802;13.530;2022-09-29T15:03:55;22.70;64.30
22383;DHT22;11359;45.802;13.530;2022-09-29T15:06:26;22.70;64.40
22383;DHT22;11359;45.802;13.530;2022-09-29T15:09:01;22.70;64.50
22383;DHT22;11359;45.802;13.530;2022-09-29T15:11:35;22.60;64.50
22383;DHT22;11359;45.802;13.530;2022-09-29T15:14:26;22.60;64.40
22383;DHT22;11359;45.802;13.530;2022-09-29T15:17:02;22.60;64.60
22383;DHT22;11359;45.802;13.530;2022-09-29T15:27:53;22.50;64.80
22383;DHT22;11359;45.802;13.530;2022-09-29T15:30:21;22.50;64.80
22383;DHT22;11359;45.802;13.530;2022-09-29T15:32:48;22.40;64.80
22383;DHT22;11359;45.802;13.530;2022-09-29T15:35:21;22.40;65.00
22383;DHT22;11359;45.802;13.530;2022-09-29T15:37:54;22.40;65.00
22383;DHT22;11359;45.802;13.530;2022-09-29T15:40:23;22.40;65.10
22383;DHT22;11359;45.802;13.530;2022-09-29T15:42:50;22.30;65.10
22383;DHT22;11359;45.802;13.530;2022-09-29T15:45:22;22.30;65.20
22383;DHT22;11359;45.802;13.530;2022-09-29T15:48:01;22.30;65.20
22383;DHT22;11359;45.802;13.530;2022-09-29T15:50:29;22.30;65.30
22383;DHT22;11359;45.802;13.530;2022-09-29T15:52:58;22.20;65.30
22383;DHT22;11359;45.802;13.530;2022-09-29T15:55:29;22.20;65.40
22383;DHT22;11359;45.802;13.530;2022-09-29T15:57:56;22.20;65.50
22383;DHT22;11359;45.802;13.530;2022-09-29T16:05:24;22.10;65.50
22383;DHT22;11359;45.802;13.530;2022-09-29T16:07:54;22.10;65.50
22383;DHT22;11359;45.802;13.530;2022-09-29T16:10:28;22.10;65.70
22383;DHT22;11359;45.802;13.530;2022-09-29T16:13:00;22.00;65.70
22383;DHT22;11359;45.802;13.530;2022-09-29T16:15:35;22.00;66.10
22383;DHT22;11359;45.802;13.530;2022-09-29T16:18:08;21.90;65.90
22383;DHT22;11359;45.802;13.530;2022-09-29T16:20:37;21.90;66.10
22383;DHT22;11359;45.802;13.530;2022-09-29T16:23:34;21.90;66.20
22383;DHT22;11359;45.802;13.530;2022-09-29T16:28:35;21.90;66.50
22383;DHT22;11359;45.802;13.530;2022-09-29T16:31:16;21.80;66.30
22383;DHT22;11359;45.802;13.530;2022-09-29T16:33:46;21.80;66.30
22383;DHT22;11359;45.802;13.530;2022-09-29T16:36:20;21.80;66.30
22383;DHT22;11359;45.802;13.530;2022-09-29T16:38:48;21.80;66.30
22383;DHT22;11359;45.802;13.530;2022-09-29T16:44:13;21.80;66.20
22383;DHT22;11359;45.802;13.530;2022-09-29T16:49:56;21.70;66.10
22383;DHT22;11359;45.802;13.530;2022-09-29T16:58:01;21.60;65.60
22383;DHT22;11359;45.802;13.530;2022-09-29T17:00:28;21.60;65.60
22383;DHT22;11359;45.802;13.530;2022-09-29T17:02:55;21.50;65.50
22383;DHT22;11359;45.802;13.530;2022-09-29T17:05:23;21.50;65.50
22383;DHT22;11359;45.802;13.530;2022-09-29T17:07:50;21.60;65.40
22383;DHT22;11359;45.802;13.530;2022-09-29T17:10:24;21.50;65.30
22383;DHT22;11359;45.802;13.530;2022-09-29T17:12:50;21.50;65.30
22383;DHT22;11359;45.802;13.530;2022-09-29T17:15:16;21.50;65.30
22383;DHT22;11359;45.802;13.530;2022-09-29T17:17:47;21.50;65.20
22383;DHT22;11359;45.802;13.530;2022-09-29T17:20:16;21.50;65.10
22383;DHT22;11359;45.802;13.530;2022-09-29T17:22:43;21.50;65.00
22383;DHT22;11359;45.802;13.530;2022-09-29T17:25:10;21.40;64.90
22383;DHT22;11359;45.802;13.530;2022-09-29T17:27:36;21.50;65.00
22383;DHT22;11359;45.802;13.530;2022-09-29T17:30:23;21.40;64.90
22383;DHT22;11359;45.802;13.530;2022-09-29T17:32:52;21.40;64.80
22383;DHT22;11359;45.802;13.530;2022-09-29T17:35:27;21.50;64.80
22383;DHT22;11359;45.802;13.530;2022-09-29T17:37:53;21.40;64.70
22383;DHT22;11359;45.802;13.530;2022-09-29T17:43:11;21.40;64.70
22383;DHT22;11359;45.802;13.530;2022-09-29T17:45:37;21.40;64.90
22383;DHT22;11359;45.802;13.530;2022-09-29T17:48:03;21.40;64.60
22383;DHT22;11359;45.802;13.530;2022-09-29T17:50:44;21.40;64.60
22383;DHT22;11359;45.802;13.530;2022-09-29T17:53:10;21.40;64.50
22383;DHT22;11359;45.802;13.530;2022-09-29T17:55:38;21.40;64.40
22383;DHT22;11359;45.802;13.530;2022-09-29T17:58:05;21.40;64.30
22383;DHT22;11359;45.802;13.530;2022-09-29T18:00:36;21.40;64.20
22383;DHT22;11359;45.802;13.530;2022-09-29T18:03:07;21.30;64.10
22383;DHT22;11359;45.802;13.530;2022-09-29T18:05:35;21.40;64.10
22383;DHT22;11359;45.802;13.530;2022-09-29T18:08:03;21.40;64.10
22383;DHT22;11359;45.802;13.530;2022-09-29T18:10:38;21.30;64.00
22383;DHT22;11359;45.802;13.530;2022-09-29T18:13:05;21.30;64.00
22383;DHT22;11359;45.802;13.530;2022-09-29T18:15:32;21.30;64.10
22383;DHT22;11359;45.802;13.530;2022-09-29T18:18:00;21.30;64.10
22383;DHT22;11359;45.802;13.530;2022-09-29T18:20:28;21.30;64.10
22383;DHT22;11359;45.802;13.530;2022-09-29T18:22:55;21.30;64.10
22383;DHT22;11359;45.802;13.530;2022-09-29T18:25:25;21.30;64.00
22383;DHT22;11359;45.802;13.530;2022-09-29T18:27:51;21.30;64.00
22383;DHT22;11359;45.802;13.530;2022-09-29T18:30:31;21.20;64.00
22383;DHT22;11359;45.802;13.530;2022-09-29T18:32:59;21.30;64.10
22383;DHT22;11359;45.802;13.530;2022-09-29T18:35:32;21.20;64.00
22383;DHT22;11359;45.802;13.530;2022-09-29T18:37:59;21.30;64.00
22383;DHT22;11359;45.802;13.530;2022-09-29T18:40:27;21.20;63.90
22383;DHT22;11359;45.802;13.530;2022-09-29T18:42:54;21.20;63.90
22383;DHT22;11359;45.802;13.530;2022-09-29T18:45:29;21.20;63.90
22383;DHT22;11359;45.802;13.530;2022-09-29T18:47:58;21.20;63.80
22383;DHT22;11359;45.802;13.530;2022-09-29T18:50:35;21.20;63.80
22383;DHT22;11359;45.802;13.530;2022-09-29T18:53:07;21.20;63.80
22383;DHT22;11359;45.802;13.530;2022-09-29T18:55:34;21.20;63.80
22383;DHT22;11359;45.802;13.530;2022-09-29T18:58:00;21.20;63.80
22383;DHT22;11359;45.802;13.530;2022-09-29T19:00:32;21.10;63.80
22383;DHT22;11359;45.802;13.530;2022-09-29T19:02:59;21.20;63.90
22383;DHT22;11359;45.802;13.530;2022-09-29T19:05:28;21.10;63.90
22383;DHT22;11359;45.802;13.530;2022-09-29T19:07:58;21.10;63.90
22383;DHT22;11359;45.802;13.530;2022-09-29T19:10:24;21.10;63.90
22383;DHT22;11359;45.802;13.530;2022-09-29T19:12:50;21.10;63.90
22383;DHT22;11359;45.802;13.530;2022-09-29T19:15:20;21.10;63.90
22383;DHT22;11359;45.802;13.530;2022-09-29T19:17:48;21.10;64.00
22383;DHT22;11359;45.802;13.530;2022-09-29T19:20:16;21.10;64.00
22383;DHT22;11359;45.802;13.530;2022-09-29T19:22:42;21.10;64.00
22383;DHT22;11359;45.802;13.530;2022-09-29T19:25:15;21.10;64.00